createdAt,value
2018-06-18T00:02:09.818Z,3.30
2018-06-18T00:04:38.803Z,3.20
2018-06-18T00:07:07.713Z,2.97
2018-06-18T00:09:36.508Z,3.67
2018-06-18T00:12:05.543Z,3.57
2018-06-18T00:14:34.462Z,3.23
2018-06-18T00:17:03.679Z,3.37
2018-06-18T00:19:32.407Z,3.40
2018-06-18T00:22:01.356Z,3.43
2018-06-18T00:24:30.253Z,3.60
2018-06-18T00:26:59.156Z,3.53
2018-06-18T00:29:28.249Z,3.30
2018-06-18T00:31:57.246Z,3.17
2018-06-18T00:34:25.692Z,3.07
2018-06-18T00:36:54.477Z,2.90
2018-06-18T00:39:23.270Z,3.43
2018-06-18T00:41:52.190Z,3.20
2018-06-18T00:44:21.767Z,3.30
2018-06-18T00:46:50.662Z,3.07
2018-06-18T00:49:19.653Z,3.23
2018-06-18T00:51:48.455Z,3.20
2018-06-18T00:54:17.328Z,2.80
2018-06-18T00:56:46.148Z,3.10
2018-06-18T00:59:15.038Z,2.93
2018-06-18T01:01:43.724Z,3.03
2018-06-18T01:04:12.500Z,3.00
2018-06-18T01:06:41.096Z,2.97
2018-06-18T01:09:11.424Z,3.60
2018-06-18T01:11:40.174Z,2.97
2018-06-18T01:14:09.354Z,3.13
2018-06-18T01:16:38.177Z,2.70
2018-06-18T01:19:07.300Z,3.00
2018-06-18T01:21:36.189Z,2.63
2018-06-18T01:24:12.435Z,2.80
2018-06-18T01:26:41.246Z,3.20
2018-06-18T01:29:10.231Z,3.00
2018-06-18T01:31:38.983Z,3.10
2018-06-18T01:34:25.657Z,2.93
2018-06-18T01:36:54.559Z,3.07
2018-06-18T01:39:24.120Z,2.97
2018-06-18T01:41:53.537Z,2.77
2018-06-18T01:44:22.499Z,3.00
2018-06-18T01:46:51.496Z,2.97
2018-06-18T01:49:20.146Z,3.07
2018-06-18T01:51:48.892Z,2.97
2018-06-18T01:54:17.607Z,3.17
2018-06-18T01:56:46.313Z,3.10
2018-06-18T01:59:15.084Z,3.17
2018-06-18T02:01:44.008Z,3.00
2018-06-18T02:04:13.017Z,3.40
2018-06-18T02:06:41.713Z,3.10
2018-06-18T02:09:12.359Z,3.30
2018-06-18T02:11:41.333Z,3.37
2018-06-18T02:14:11.187Z,2.93
2018-06-18T02:16:40.133Z,3.40
2018-06-18T02:19:09.108Z,3.10
2018-06-18T02:21:38.197Z,3.17
2018-06-18T02:24:07.160Z,3.43
2018-06-18T02:26:35.757Z,3.33
2018-06-18T02:29:10.323Z,3.27
2018-06-18T02:31:44.644Z,3.37
2018-06-18T02:34:18.954Z,3.67
2018-06-18T02:36:52.921Z,3.60
2018-06-18T02:39:21.700Z,3.60
2018-06-18T02:41:50.388Z,3.70
2018-06-18T02:44:18.721Z,3.40
2018-06-18T02:46:47.541Z,3.80
2018-06-18T02:49:16.403Z,3.57
2018-06-18T02:51:45.325Z,3.60
2018-06-18T02:54:14.164Z,3.77
2018-06-18T02:56:56.440Z,3.50
2018-06-18T02:59:25.293Z,3.60
2018-06-18T03:01:54.200Z,3.70
2018-06-18T03:04:23.009Z,3.80
2018-06-18T03:06:51.644Z,3.73
2018-06-18T03:09:20.673Z,4.37
2018-06-18T03:11:49.510Z,3.90
2018-06-18T03:14:18.200Z,3.63
2018-06-18T03:16:47.046Z,4.10
2018-06-18T03:19:21.636Z,3.90
2018-06-18T03:21:55.699Z,4.00
2018-06-18T03:24:29.736Z,4.03
2018-06-18T03:27:03.881Z,3.87
2018-06-18T03:29:34.448Z,4.30
2018-06-18T03:32:08.964Z,4.33
2018-06-18T03:34:37.979Z,4.10
2018-06-18T03:37:08.582Z,4.57
2018-06-18T03:39:37.451Z,4.57
2018-06-18T03:42:06.932Z,4.87
2018-06-18T03:44:41.476Z,4.77
2018-06-18T03:47:15.701Z,4.93
2018-06-18T03:49:44.696Z,4.83
2018-06-18T03:52:14.139Z,5.00
2018-06-18T03:54:42.818Z,5.10
2018-06-18T03:57:11.788Z,4.60
2018-06-18T03:59:40.611Z,4.30
2018-06-18T04:02:25.032Z,4.70
2018-06-18T04:05:00.764Z,4.77
2018-06-18T04:07:35.381Z,4.87
2018-06-18T04:10:09.659Z,5.33
2018-06-18T04:12:38.490Z,4.80
2018-06-18T04:15:07.257Z,4.70
2018-06-18T04:17:35.995Z,4.80
2018-06-18T04:20:04.780Z,4.70
2018-06-18T04:22:33.553Z,5.00
2018-06-18T04:25:02.433Z,4.97
2018-06-18T04:27:31.298Z,5.10
2018-06-18T04:30:00.323Z,5.47
2018-06-18T04:32:29.414Z,5.43
2018-06-18T04:35:02.956Z,5.47
2018-06-18T04:37:31.764Z,5.30
2018-06-18T04:40:00.594Z,5.00
2018-06-18T04:42:34.780Z,4.67
2018-06-18T04:45:08.963Z,5.40
2018-06-18T04:47:43.272Z,4.67
2018-06-18T04:50:17.415Z,4.70
2018-06-18T04:52:46.487Z,4.90
2018-06-18T04:55:15.453Z,4.93
2018-06-18T04:57:44.186Z,5.40
2018-06-18T05:01:21.466Z,5.13
2018-06-18T05:03:50.229Z,4.53
2018-06-18T05:06:19.118Z,5.00
2018-06-18T05:08:57.999Z,4.97
2018-06-18T05:11:26.720Z,5.13
2018-06-18T05:13:55.516Z,4.33
2018-06-18T05:16:24.401Z,4.80
2018-06-18T05:18:53.293Z,4.97
2018-06-18T05:21:22.049Z,4.43
2018-06-18T05:23:50.973Z,4.70
2018-06-18T05:26:20.010Z,4.80
2018-06-18T05:28:49.085Z,5.00
2018-06-18T05:31:17.988Z,4.33
2018-06-18T05:33:46.668Z,4.47
2018-06-18T05:36:15.538Z,4.97
2018-06-18T05:38:44.315Z,4.10
2018-06-18T05:41:12.924Z,4.73
2018-06-18T05:43:41.692Z,4.70
2018-06-18T05:46:10.690Z,4.70
2018-06-18T05:48:39.612Z,4.33
2018-06-18T05:51:08.567Z,4.60
2018-06-18T05:53:37.512Z,4.90
2018-06-18T05:56:06.659Z,5.30
2018-06-18T05:58:36.228Z,5.50
2018-06-18T06:01:05.288Z,5.00
2018-06-18T06:03:33.983Z,4.77
2018-06-18T06:06:02.896Z,4.60
2018-06-18T06:08:31.860Z,5.07
2018-06-18T06:11:00.538Z,4.53
2018-06-18T06:13:29.411Z,4.30
2018-06-18T06:15:58.300Z,3.63
2018-06-18T06:18:27.192Z,4.50
2018-06-18T06:20:59.304Z,4.40
2018-06-18T06:23:28.175Z,3.70
2018-06-18T06:25:57.073Z,4.00
2018-06-18T06:28:25.933Z,3.73
2018-06-18T06:30:55.161Z,3.50
2018-06-18T06:33:25.028Z,3.90
2018-06-18T06:35:54.742Z,3.90
2018-06-18T06:38:23.573Z,3.77
2018-06-18T06:40:53.064Z,3.70
2018-06-18T06:43:22.100Z,3.33
2018-06-18T06:45:50.811Z,3.27
2018-06-18T06:48:19.626Z,3.50
2018-06-18T06:50:48.502Z,3.43
2018-06-18T06:53:17.291Z,3.40
2018-06-18T06:55:46.228Z,3.10
2018-06-18T06:58:15.012Z,3.20
2018-06-18T07:00:43.906Z,3.00
2018-06-18T07:03:12.667Z,3.27
2018-06-18T07:05:41.552Z,3.37
2018-06-18T07:08:10.660Z,3.37
2018-06-18T07:10:39.499Z,3.20
2018-06-18T07:13:08.347Z,2.93
2018-06-18T07:15:37.189Z,3.20
2018-06-18T07:18:06.113Z,3.80
2018-06-18T07:20:35.110Z,3.30
2018-06-18T07:23:04.009Z,3.10
2018-06-18T07:25:32.712Z,3.20
2018-06-18T07:28:01.443Z,3.23
2018-06-18T07:30:30.518Z,3.13
2018-06-18T07:32:59.357Z,3.20
2018-06-18T07:35:28.502Z,3.40
2018-06-18T07:37:57.440Z,3.20
2018-06-18T07:40:26.317Z,2.70
2018-06-18T07:42:55.265Z,3.00
2018-06-18T07:45:23.980Z,3.47
2018-06-18T07:47:52.946Z,3.03
2018-06-18T07:50:21.884Z,3.23
2018-06-18T07:52:50.793Z,3.70
2018-06-18T07:55:19.477Z,3.20
2018-06-18T07:57:48.607Z,3.37
2018-06-18T08:00:17.219Z,3.60
2018-06-18T08:02:46.192Z,3.60
2018-06-18T08:05:14.739Z,3.03
2018-06-18T08:07:43.448Z,3.30
2018-06-18T08:10:12.249Z,3.30
2018-06-18T08:12:41.105Z,2.80
2018-06-18T08:15:09.994Z,3.30
2018-06-18T08:17:38.659Z,3.07
2018-06-18T08:20:07.682Z,2.80
2018-06-18T08:22:36.671Z,2.90
2018-06-18T08:25:05.757Z,2.93
2018-06-18T08:27:34.785Z,3.03
2018-06-18T08:30:03.649Z,3.10
2018-06-18T08:32:32.549Z,3.23
2018-06-18T08:35:01.358Z,2.70
2018-06-18T08:37:30.145Z,2.70
2018-06-18T08:39:58.871Z,2.40
2018-06-18T08:42:27.697Z,3.07
2018-06-18T08:44:56.514Z,2.93
2018-06-18T08:47:25.312Z,2.73
2018-06-18T08:49:59.144Z,3.00
2018-06-18T08:52:33.399Z,3.77
2018-06-18T08:55:07.377Z,3.17
2018-06-18T08:57:41.655Z,3.10
2018-06-18T09:00:15.787Z,2.90
2018-06-18T09:02:53.130Z,3.00
2018-06-18T09:05:27.412Z,4.00
2018-06-18T09:08:02.697Z,3.30
2018-06-18T09:10:31.726Z,4.40
2018-06-18T09:13:00.393Z,3.47
2018-06-18T09:15:29.465Z,4.30
2018-06-18T09:17:58.371Z,4.10
2018-06-18T09:20:27.384Z,4.50
2018-06-18T09:22:56.243Z,4.77
2018-06-18T09:25:25.029Z,4.60
2018-06-18T09:27:53.795Z,4.97
2018-06-18T09:30:22.812Z,4.20
2018-06-18T09:32:51.756Z,4.63
2018-06-18T09:35:20.606Z,4.60
2018-06-18T09:37:49.571Z,4.50
2018-06-18T09:40:18.410Z,4.00
2018-06-18T09:42:47.194Z,4.50
2018-06-18T09:45:15.962Z,3.70
2018-06-18T09:47:44.744Z,3.97
2018-06-18T09:50:18.857Z,4.20
2018-06-18T09:52:52.961Z,3.60
2018-06-18T09:55:27.302Z,3.53
2018-06-18T09:58:01.435Z,3.33
2018-06-18T10:00:46.883Z,3.20
2018-06-18T10:03:15.676Z,3.53
2018-06-18T10:05:44.371Z,3.17
2018-06-18T10:08:13.377Z,3.87
2018-06-18T10:10:42.550Z,3.30
2018-06-18T10:13:11.439Z,3.50
2018-06-18T10:15:40.184Z,3.33
2018-06-18T10:18:09.045Z,3.50
2018-06-18T10:20:38.013Z,3.70
2018-06-18T10:23:07.005Z,2.67
2018-06-18T10:25:35.985Z,3.60
2018-06-18T10:28:05.179Z,3.50
2018-06-18T10:30:34.111Z,3.47
2018-06-18T10:33:08.208Z,4.10
2018-06-18T10:35:42.240Z,3.47
2018-06-18T10:38:16.536Z,3.70
2018-06-18T10:40:50.547Z,4.13
2018-06-18T10:43:24.862Z,3.43
2018-06-18T10:45:53.821Z,3.20
2018-06-18T10:48:23.285Z,3.40
2018-06-18T10:50:52.078Z,3.63
2018-06-18T10:53:21.055Z,3.60
2018-06-18T10:55:49.787Z,3.37
2018-06-18T10:58:18.563Z,3.23
2018-06-18T11:00:54.402Z,3.40
2018-06-18T11:03:23.593Z,3.80
2018-06-18T11:06:58.621Z,3.83
2018-06-18T11:09:27.505Z,4.33
2018-06-18T11:11:56.333Z,4.33
2018-06-18T11:14:25.223Z,4.40
2018-06-18T11:16:59.423Z,4.80
2018-06-18T11:19:33.412Z,4.70
2018-06-18T11:22:05.755Z,4.50
2018-06-18T11:24:40.136Z,4.70
2018-06-18T11:27:09.803Z,4.70
2018-06-18T11:29:38.621Z,4.90
2018-06-18T11:32:07.267Z,4.77
2018-06-18T11:34:35.947Z,4.87
2018-06-18T11:37:04.808Z,5.03
2018-06-18T11:39:33.675Z,4.90
2018-06-18T11:42:02.516Z,4.90
2018-06-18T11:44:31.555Z,4.70
2018-06-18T11:47:00.561Z,4.70
2018-06-18T11:49:29.265Z,4.93
2018-06-18T11:51:58.039Z,5.00
2018-06-18T11:54:26.747Z,4.80
2018-06-18T11:56:55.481Z,5.00
2018-06-18T11:59:29.648Z,5.40
2018-06-18T12:03:01.598Z,5.60
2018-06-18T12:05:35.917Z,4.80
2018-06-18T12:08:10.024Z,5.30
2018-06-18T12:10:38.951Z,5.27
2018-06-18T12:13:07.987Z,5.20
2018-06-18T12:15:36.791Z,5.00
2018-06-18T12:18:05.794Z,5.07
2018-06-18T12:20:34.761Z,4.73
2018-06-18T12:23:03.657Z,4.80
2018-06-18T12:25:32.381Z,4.67
2018-06-18T12:28:01.169Z,5.20
2018-06-18T12:30:29.667Z,4.83
2018-06-18T12:32:58.482Z,4.77
2018-06-18T12:35:27.139Z,5.03
2018-06-18T12:37:56.216Z,5.53
2018-06-18T12:40:24.954Z,5.07
2018-06-18T12:42:53.776Z,5.43
2018-06-18T12:45:28.182Z,5.70
2018-06-18T12:48:02.302Z,4.93
2018-06-18T12:50:36.528Z,5.30
2018-06-18T12:53:10.883Z,5.80
2018-06-18T12:55:44.813Z,4.83
2018-06-18T12:58:13.973Z,4.93
2018-06-18T13:00:42.867Z,4.83
2018-06-18T13:03:13.639Z,4.67
2018-06-18T13:05:42.358Z,3.80
2018-06-18T13:08:11.120Z,4.70
2018-06-18T13:10:39.809Z,4.90
2018-06-18T13:13:08.619Z,5.10
2018-06-18T13:15:37.614Z,5.03
2018-06-18T13:18:06.769Z,4.57
2018-06-18T13:20:35.705Z,5.23
2018-06-18T13:23:04.491Z,5.07
2018-06-18T13:25:33.361Z,4.83
2018-06-18T13:28:07.506Z,4.90
2018-06-18T13:30:36.216Z,4.73
2018-06-18T13:33:05.175Z,4.50
2018-06-18T13:35:34.091Z,4.40
2018-06-18T13:38:08.422Z,4.00
2018-06-18T13:40:42.394Z,3.70
2018-06-18T13:43:16.610Z,3.80
2018-06-18T13:45:47.270Z,3.50
2018-06-18T13:48:54.326Z,3.30
2018-06-18T13:51:23.658Z,2.50
2018-06-18T13:53:52.519Z,3.30
2018-06-18T13:56:21.232Z,3.10
2018-06-18T13:58:49.999Z,3.03
2018-06-18T14:01:18.784Z,2.60
2018-06-18T14:03:47.502Z,3.07
2018-06-18T14:06:16.313Z,2.90
2018-06-18T14:08:45.360Z,2.63
2018-06-18T14:11:14.430Z,2.90
2018-06-18T14:13:43.370Z,2.95
2018-06-18T14:16:12.237Z,3.33
2018-06-18T14:18:41.141Z,2.97
2018-06-18T14:21:10.224Z,3.00
2018-06-18T14:23:38.935Z,2.80
2018-06-18T14:26:08.037Z,3.30
2018-06-18T14:28:37.256Z,3.10
2018-06-18T14:31:11.526Z,3.03
2018-06-18T14:33:45.753Z,3.20
2018-06-18T14:36:20.711Z,2.97
2018-06-18T14:38:55.001Z,3.00
2018-06-18T14:41:24.022Z,2.80
2018-06-18T14:43:52.875Z,2.93
2018-06-18T14:46:21.774Z,2.90
2018-06-18T14:48:50.788Z,2.87
2018-06-18T14:51:19.484Z,3.13
2018-06-18T14:53:48.239Z,2.70
2018-06-18T14:56:22.964Z,2.40
2018-06-18T14:58:59.190Z,2.23
2018-06-18T15:01:28.133Z,2.30
2018-06-18T15:03:57.053Z,2.73
2018-06-18T15:06:25.903Z,2.30
2018-06-18T15:08:54.705Z,2.27
2018-06-18T15:11:23.495Z,2.33
2018-06-18T15:13:52.417Z,2.43
2018-06-18T15:16:26.150Z,1.90
2018-06-18T15:18:55.170Z,2.10
2018-06-18T15:21:24.256Z,2.03
2018-06-18T15:23:53.365Z,2.00
2018-06-18T15:26:22.046Z,2.10
2018-06-18T15:28:50.964Z,1.90
2018-06-18T15:31:19.653Z,1.97
2018-06-18T15:33:48.345Z,2.17
2018-06-18T15:36:17.145Z,2.20
2018-06-18T15:38:45.917Z,2.10
2018-06-18T15:41:14.680Z,1.90
2018-06-18T15:43:43.373Z,2.07
2018-06-18T15:46:12.624Z,2.13
2018-06-18T15:48:41.454Z,2.10
2018-06-18T15:51:10.199Z,2.10
2018-06-18T15:53:39.063Z,1.90
2018-06-18T15:56:07.922Z,1.80
2018-06-18T15:58:37.121Z,1.73
2018-06-18T16:01:05.956Z,1.93
2018-06-18T16:03:34.748Z,1.90
2018-06-18T16:06:03.133Z,1.90
2018-06-18T16:08:32.178Z,2.00
2018-06-18T16:11:00.940Z,2.03
2018-06-18T16:13:29.676Z,2.17
2018-06-18T16:15:58.466Z,2.15
2018-06-18T16:18:27.354Z,2.20
2018-06-18T16:20:56.476Z,2.00
2018-06-18T16:23:25.653Z,2.30
2018-06-18T16:25:54.410Z,2.00
2018-06-18T16:28:23.542Z,2.43
2018-06-18T16:30:52.168Z,2.17
2018-06-18T16:33:21.087Z,2.33
2018-06-18T16:35:49.805Z,2.12
2018-06-18T16:38:18.768Z,2.30
2018-06-18T16:40:47.579Z,2.23
2018-06-18T16:43:16.445Z,2.23
2018-06-18T16:45:45.248Z,2.33
2018-06-18T16:48:14.131Z,2.40
2018-06-18T16:50:42.995Z,2.47
2018-06-18T16:53:11.893Z,2.50
2018-06-18T16:55:40.628Z,2.00
2018-06-18T16:58:10.214Z,2.33
2018-06-18T17:00:39.094Z,2.00
2018-06-18T17:03:07.928Z,3.93
2018-06-18T17:05:36.805Z,2.62
2018-06-18T17:08:05.768Z,2.33
2018-06-18T17:10:34.768Z,2.43
2018-06-18T17:13:03.484Z,2.10
2018-06-18T17:15:32.388Z,2.10
2018-06-18T17:18:01.416Z,2.10
2018-06-18T17:20:30.540Z,2.13
2018-06-18T17:23:00.031Z,2.50
2018-06-18T17:25:29.064Z,2.20
2018-06-18T17:27:57.509Z,2.20
2018-06-18T17:30:26.343Z,2.23
2018-06-18T17:32:55.075Z,2.07
2018-06-18T17:35:24.133Z,2.00
2018-06-18T17:37:53.075Z,2.10
2018-06-18T17:40:22.303Z,2.10
2018-06-18T17:42:51.904Z,2.17
2018-06-18T17:45:20.624Z,2.27
2018-06-18T17:47:49.947Z,2.20
2018-06-18T17:50:18.968Z,2.10
2018-06-18T17:52:47.731Z,1.97
2018-06-18T17:55:16.677Z,2.23
2018-06-18T17:57:45.640Z,2.13
2018-06-18T18:00:14.578Z,2.27
2018-06-18T18:02:43.462Z,2.53
2018-06-18T18:05:12.224Z,2.57
2018-06-18T18:07:41.177Z,2.20
2018-06-18T18:10:10.645Z,2.23
2018-06-18T18:12:39.399Z,2.30
2018-06-18T18:15:08.286Z,1.90
2018-06-18T18:17:37.537Z,2.17
2018-06-18T18:20:06.585Z,2.13
2018-06-18T18:22:35.917Z,2.30
2018-06-18T18:25:05.595Z,2.13
2018-06-18T18:27:34.894Z,2.03
2018-06-18T18:30:04.368Z,1.97
2018-06-18T18:32:34.134Z,1.93
2018-06-18T18:35:03.740Z,1.83
2018-06-18T18:37:33.279Z,1.90
2018-06-18T18:40:02.537Z,1.90
2018-06-18T18:42:32.146Z,1.87
2018-06-18T18:45:01.839Z,1.90
2018-06-18T18:47:31.561Z,1.70
2018-06-18T18:50:01.043Z,2.03
2018-06-18T18:52:30.756Z,2.10
2018-06-18T18:55:37.857Z,1.90
2018-06-18T18:58:19.786Z,1.80
2018-06-18T19:00:50.102Z,2.00
2018-06-18T19:03:21.394Z,1.90
2018-06-18T19:05:51.944Z,2.00
2018-06-18T19:08:28.334Z,1.83
2018-06-18T19:10:58.525Z,1.80
2018-06-18T19:13:30.564Z,2.00
2018-06-18T19:16:00.311Z,1.87
2018-06-18T19:18:30.005Z,2.17
2018-06-18T19:21:04.206Z,2.00
2018-06-18T19:23:33.694Z,2.15
2018-06-18T19:26:03.674Z,2.10
2018-06-18T19:28:33.613Z,2.40
2018-06-18T19:31:13.864Z,1.80
2018-06-18T19:34:21.235Z,2.12
2018-06-18T19:36:54.151Z,2.07
2018-06-18T19:39:27.225Z,2.20
2018-06-18T19:41:56.724Z,2.20
2018-06-18T19:44:26.879Z,2.50
2018-06-18T19:47:06.619Z,1.90
2018-06-18T19:49:35.779Z,2.40
2018-06-18T19:52:05.176Z,2.30
2018-06-18T19:54:38.275Z,2.17
2018-06-18T19:57:07.635Z,2.37
2018-06-18T19:59:36.775Z,2.60
2018-06-18T20:02:05.969Z,2.50
2018-06-18T20:04:34.907Z,2.47
2018-06-18T20:07:04.033Z,2.33
2018-06-18T20:09:33.063Z,2.60
2018-06-18T20:12:02.187Z,2.43
2018-06-18T20:14:31.285Z,2.40
2018-06-18T20:17:00.591Z,2.63
2018-06-18T20:19:29.640Z,2.40
2018-06-18T20:21:58.632Z,2.73
2018-06-18T20:24:27.733Z,3.00
2018-06-18T20:26:57.054Z,2.67
2018-06-18T20:29:25.863Z,2.50
2018-06-18T20:31:54.947Z,3.10
2018-06-18T20:34:23.910Z,2.77
2018-06-18T20:36:52.773Z,2.63
2018-06-18T20:39:21.796Z,2.60
2018-06-18T20:41:50.718Z,2.50
2018-06-18T20:44:20.355Z,2.73
2018-06-18T20:46:49.060Z,2.70
2018-06-18T20:49:17.989Z,2.60
2018-06-18T20:51:50.048Z,2.93
2018-06-18T20:54:19.033Z,3.23
2018-06-18T20:56:47.749Z,3.20
2018-06-18T20:59:16.476Z,3.20
2018-06-18T21:01:45.301Z,3.20
2018-06-18T21:04:14.132Z,3.20
2018-06-18T21:06:43.012Z,3.27
2018-06-18T21:09:12.145Z,3.37
2018-06-18T21:11:41.275Z,3.10
2018-06-18T21:14:11.279Z,2.90
2018-06-18T21:16:42.453Z,3.40
2018-06-18T21:19:11.223Z,3.23
2018-06-18T21:21:40.092Z,3.37
2018-06-18T21:24:08.903Z,3.30
2018-06-18T21:26:38.001Z,3.20
2018-06-18T21:29:07.125Z,3.60
2018-06-18T21:31:35.990Z,3.30
2018-06-18T21:34:04.647Z,3.67
2018-06-18T21:36:33.596Z,3.40
2018-06-18T21:39:02.463Z,3.37
2018-06-18T21:41:31.377Z,2.97
2018-06-18T21:44:00.268Z,3.43
2018-06-18T21:46:29.136Z,3.47
2018-06-18T21:48:58.271Z,3.60
2018-06-18T21:51:26.969Z,3.20
2018-06-18T21:53:55.395Z,3.30
2018-06-18T21:56:24.071Z,3.50
2018-06-18T21:58:52.807Z,3.10
2018-06-18T22:01:32.884Z,3.20
2018-06-18T22:04:01.638Z,3.43
2018-06-18T22:06:30.808Z,3.90
2018-06-18T22:08:59.803Z,3.80
2018-06-18T22:11:28.578Z,3.60
2018-06-18T22:13:57.281Z,3.13
2018-06-18T22:16:26.097Z,3.70
2018-06-18T22:18:54.927Z,3.60
2018-06-18T22:21:23.743Z,3.87
2018-06-18T22:23:52.517Z,4.03
2018-06-18T22:26:21.195Z,3.30
2018-06-18T22:28:50.011Z,3.90
2018-06-18T22:31:18.877Z,3.50
2018-06-18T22:33:47.611Z,3.93
2018-06-18T22:36:16.404Z,3.50
2018-06-18T22:38:45.120Z,3.40
2018-06-18T22:41:13.752Z,3.50
2018-06-18T22:43:42.584Z,3.70
2018-06-18T22:46:11.355Z,3.77
2018-06-18T22:48:40.253Z,3.23
2018-06-18T22:51:08.888Z,3.47
2018-06-18T22:53:37.815Z,3.53
2018-06-18T22:56:06.793Z,3.30
2018-06-18T22:58:35.504Z,3.80
2018-06-18T23:01:04.425Z,3.67
2018-06-18T23:03:33.288Z,3.20
2018-06-18T23:06:02.272Z,3.57
2018-06-18T23:08:30.950Z,3.40
2018-06-18T23:10:59.832Z,3.17
2018-06-18T23:13:31.094Z,3.30
2018-06-18T23:16:00.612Z,3.30
2018-06-18T23:18:29.573Z,3.40
2018-06-18T23:20:58.519Z,3.23
2018-06-18T23:23:26.962Z,3.50
2018-06-18T23:25:55.940Z,3.60
2018-06-18T23:28:30.127Z,3.30
2018-06-18T23:30:59.016Z,3.70
2018-06-18T23:33:27.874Z,3.53
2018-06-18T23:35:57.037Z,3.63
2018-06-18T23:38:25.865Z,3.20
2018-06-18T23:40:54.817Z,3.70
2018-06-18T23:43:23.766Z,3.47
2018-06-18T23:45:52.473Z,3.27
2018-06-18T23:48:21.216Z,3.37
2018-06-18T23:50:49.869Z,3.30
2018-06-18T23:53:18.622Z,3.40
2018-06-18T23:55:47.682Z,3.40
2018-06-18T23:58:16.467Z,3.33
